createdAt,value
2023-02-09T00:00:15.697Z,12.25
2023-02-09T00:02:44.150Z,12.85
2023-02-09T00:05:13.023Z,13.05
2023-02-09T00:07:42.084Z,12.07
2023-02-09T00:10:14.809Z,12.77
2023-02-09T00:13:00.927Z,12.63
2023-02-09T00:15:32.181Z,12.70
2023-02-09T00:18:03.762Z,13.85
2023-02-09T00:20:32.123Z,13.07
2023-02-09T00:23:05.743Z,12.52
2023-02-09T00:25:36.120Z,13.25
2023-02-09T00:28:04.561Z,13.30
2023-02-09T00:30:33.291Z,13.18
2023-02-09T00:33:01.811Z,12.93
2023-02-09T00:35:30.992Z,13.70
2023-02-09T00:37:59.994Z,12.35
2023-02-09T00:40:28.658Z,12.10
2023-02-09T00:43:00.654Z,13.23
2023-02-09T00:45:29.429Z,12.75
2023-02-09T00:47:57.669Z,11.88
2023-02-09T00:50:26.383Z,12.18
2023-02-09T00:52:54.764Z,12.85
2023-02-09T00:55:23.728Z,12.75
2023-02-09T00:57:52.682Z,12.52
2023-02-09T01:00:23.573Z,13.88
2023-02-09T01:02:51.951Z,13.60
2023-02-09T01:05:20.312Z,13.48
2023-02-09T01:07:48.672Z,13.52
2023-02-09T01:10:20.306Z,13.40
2023-02-09T01:12:48.720Z,12.07
2023-02-09T01:15:17.303Z,12.15
2023-02-09T01:17:47.130Z,13.27
2023-02-09T01:20:16.029Z,13.00
2023-02-09T01:22:44.456Z,13.10
2023-02-09T01:25:14.172Z,13.75
2023-02-09T01:27:42.943Z,12.88
2023-02-09T01:30:12.840Z,11.85
2023-02-09T01:32:41.749Z,12.30
2023-02-09T01:43:39.950Z,10.85
2023-02-09T01:47:21.172Z,11.15
2023-02-09T01:50:27.292Z,10.27
2023-02-09T01:52:56.062Z,9.93
2023-02-09T01:55:27.762Z,9.98
2023-02-09T01:58:04.042Z,10.23
2023-02-09T02:00:33.357Z,10.55
2023-02-09T02:03:08.171Z,11.02
2023-02-09T02:05:39.784Z,10.35
2023-02-09T02:08:13.696Z,11.73
2023-02-09T02:10:42.249Z,10.75
2023-02-09T02:13:10.903Z,11.13
2023-02-09T02:15:46.484Z,11.60
2023-02-09T02:18:36.007Z,13.07
2023-02-09T02:21:40.752Z,11.75
2023-02-09T02:24:35.722Z,10.65
2023-02-09T02:27:06.737Z,13.07
2023-02-09T02:29:59.642Z,13.32
2023-02-09T02:32:47.363Z,12.55
2023-02-09T02:35:26.306Z,12.65
2023-02-09T02:38:08.645Z,13.23
2023-02-09T02:40:51.356Z,10.98
2023-02-09T02:43:38.024Z,12.95
2023-02-09T02:46:11.171Z,11.55
2023-02-09T02:48:45.815Z,11.85
2023-02-09T02:51:20.175Z,12.48
2023-02-09T02:53:54.049Z,12.32
2023-02-09T02:56:27.016Z,12.32
2023-02-09T02:58:59.564Z,11.55
2023-02-09T03:01:32.363Z,12.82
2023-02-09T03:06:32.051Z,11.23
2023-02-09T03:09:00.939Z,10.27
2023-02-09T03:11:34.880Z,12.10
2023-02-09T03:14:35.924Z,11.25
2023-02-09T03:17:17.165Z,11.60
2023-02-09T03:19:52.901Z,11.80
2023-02-09T03:22:30.438Z,12.73
2023-02-09T03:25:04.149Z,12.43
2023-02-09T03:27:38.961Z,12.05
2023-02-09T03:30:11.614Z,11.63
2023-02-09T03:32:42.957Z,12.45
2023-02-09T03:35:15.624Z,11.75
2023-02-09T03:40:13.765Z,11.27
2023-02-09T03:42:42.207Z,12.23
2023-02-09T03:45:10.550Z,13.98
2023-02-09T03:47:38.862Z,11.75
2023-02-09T03:50:07.604Z,12.80
2023-02-09T03:52:37.032Z,12.52
2023-02-09T03:55:05.486Z,13.15
2023-02-09T03:57:36.279Z,12.82
2023-02-09T04:00:06.436Z,13.32
2023-02-09T04:02:35.014Z,13.35
2023-02-09T04:05:05.690Z,13.45
2023-02-09T04:07:35.422Z,13.70
2023-02-09T04:10:06.812Z,13.23
2023-02-09T04:12:35.230Z,12.23
2023-02-09T04:15:03.898Z,12.18
2023-02-09T04:17:32.240Z,12.98
2023-02-09T04:20:00.781Z,11.18
2023-02-09T04:22:29.190Z,11.82
2023-02-09T04:24:57.602Z,11.80
2023-02-09T04:27:28.544Z,12.52
2023-02-09T04:29:56.981Z,12.80
2023-02-09T04:32:25.316Z,12.15
2023-02-09T04:34:53.807Z,12.43
2023-02-09T04:37:22.200Z,12.40
2023-02-09T04:39:50.523Z,12.48
2023-02-09T04:42:19.153Z,12.13
2023-02-09T04:44:49.653Z,13.13
2023-02-09T04:47:17.922Z,11.82
2023-02-09T04:49:46.301Z,13.10
2023-02-09T04:52:14.659Z,12.07
2023-02-09T04:54:42.957Z,13.43
2023-02-09T04:57:28.510Z,11.93
2023-02-09T04:59:57.915Z,12.02
2023-02-09T05:02:26.200Z,14.15
2023-02-09T05:04:54.621Z,12.77
2023-02-09T05:07:23.201Z,12.90
2023-02-09T05:09:51.893Z,13.18
2023-02-09T05:12:20.218Z,12.30
2023-02-09T05:14:48.800Z,12.27
2023-02-09T05:17:21.046Z,12.60
2023-02-09T05:19:49.360Z,12.50
2023-02-09T05:22:17.754Z,13.07
2023-02-09T05:24:45.988Z,12.38
2023-02-09T05:27:17.957Z,12.55
2023-02-09T05:29:48.193Z,14.68
2023-02-09T05:32:21.719Z,14.55
2023-02-09T05:34:50.396Z,15.30
2023-02-09T05:37:18.884Z,12.40
2023-02-09T05:39:47.459Z,13.27
2023-02-09T05:42:19.374Z,12.85
2023-02-09T05:44:49.418Z,13.48
2023-02-09T05:47:19.332Z,12.43
2023-02-09T05:49:48.677Z,13.13
2023-02-09T05:52:18.005Z,13.73
2023-02-09T05:54:46.770Z,13.15
2023-02-09T05:57:15.515Z,13.82
2023-02-09T05:59:43.923Z,13.57
2023-02-09T06:02:14.432Z,13.48
2023-02-09T06:04:42.729Z,13.77
2023-02-09T06:07:12.264Z,13.10
2023-02-09T06:09:40.470Z,13.68
2023-02-09T06:12:09.197Z,12.35
2023-02-09T06:14:37.553Z,12.82
2023-02-09T06:17:06.248Z,13.55
2023-02-09T06:19:34.574Z,13.55
2023-02-09T06:22:02.830Z,13.18
2023-02-09T06:24:35.745Z,12.95
2023-02-09T06:27:04.040Z,12.60
2023-02-09T06:29:32.393Z,13.10
2023-02-09T06:32:00.946Z,13.00
2023-02-09T06:34:29.461Z,13.18
2023-02-09T06:36:57.718Z,12.50
2023-02-09T06:39:26.404Z,12.25
2023-02-09T06:41:55.857Z,11.63
2023-02-09T06:44:24.342Z,11.50
2023-02-09T06:46:53.044Z,11.23
2023-02-09T06:49:24.090Z,11.13
2023-02-09T06:51:52.833Z,11.73
2023-02-09T06:54:21.559Z,11.95
2023-02-09T06:56:50.859Z,12.57
2023-02-09T06:59:20.949Z,12.48
2023-02-09T07:01:54.458Z,12.65
2023-02-09T07:04:23.851Z,12.35
2023-02-09T07:06:52.348Z,12.93
2023-02-09T07:09:20.762Z,12.57
2023-02-09T07:11:48.777Z,13.27
2023-02-09T07:14:17.169Z,12.60
2023-02-09T07:16:46.748Z,12.32
2023-02-09T07:19:15.579Z,12.13
2023-02-09T07:21:46.162Z,13.20
2023-02-09T07:24:14.862Z,13.18
2023-02-09T07:26:43.384Z,13.65
2023-02-09T07:29:12.962Z,14.60
2023-02-09T07:31:41.433Z,13.13
2023-02-09T07:34:14.577Z,14.23
2023-02-09T07:36:43.246Z,12.98
2023-02-09T07:39:11.608Z,13.43
2023-02-09T07:41:40.097Z,13.65
2023-02-09T07:44:09.419Z,13.25
2023-02-09T07:46:37.727Z,13.35
2023-02-09T07:49:10.412Z,12.88
2023-02-09T07:54:08.630Z,11.38
2023-02-09T07:56:36.981Z,12.45
2023-02-09T07:59:06.412Z,12.30
2023-02-09T08:01:35.256Z,13.60
2023-02-09T08:04:03.730Z,12.77
2023-02-09T08:06:42.634Z,13.52
2023-02-09T08:09:12.529Z,13.35
2023-02-09T08:11:46.011Z,13.32
2023-02-09T08:14:17.354Z,15.00
2023-02-09T08:16:46.059Z,13.95
2023-02-09T08:19:18.104Z,16.67
2023-02-09T08:21:48.739Z,21.70
2023-02-09T08:27:10.521Z,36.40
2023-02-09T08:29:39.156Z,32.70
2023-02-09T08:32:07.611Z,24.63
2023-02-09T08:34:35.972Z,21.48
2023-02-09T08:37:05.459Z,22.15
2023-02-09T08:39:33.787Z,18.95
2023-02-09T08:42:02.315Z,16.65
2023-02-09T08:44:30.811Z,17.60
2023-02-09T08:47:05.418Z,14.98
2023-02-09T08:49:33.509Z,14.93
2023-02-09T08:52:02.130Z,16.25
2023-02-09T08:54:39.312Z,17.60
2023-02-09T08:57:10.052Z,14.20
2023-02-09T08:59:38.585Z,15.95
2023-02-09T09:02:07.133Z,16.58
2023-02-09T09:04:35.596Z,17.02
2023-02-09T09:07:04.272Z,16.00
2023-02-09T09:09:33.988Z,15.60
2023-02-09T09:12:04.725Z,15.55
2023-02-09T09:14:34.364Z,15.00
2023-02-09T09:17:02.848Z,14.73
2023-02-09T09:19:31.449Z,14.85
2023-02-09T09:22:02.657Z,15.13
2023-02-09T09:24:34.997Z,14.25
2023-02-09T09:27:03.362Z,14.85
2023-02-09T09:29:43.039Z,15.15
2023-02-09T09:32:13.941Z,15.35
2023-02-09T09:34:42.528Z,14.85
2023-02-09T09:37:10.770Z,14.85
2023-02-09T09:39:40.482Z,15.10
2023-02-09T09:42:24.174Z,14.57
2023-02-09T09:44:53.471Z,15.63
2023-02-09T09:47:27.941Z,15.00
2023-02-09T09:49:56.926Z,15.68
2023-02-09T09:52:33.903Z,16.40
2023-02-09T09:55:08.120Z,14.60
2023-02-09T09:57:48.074Z,17.55
2023-02-09T10:00:20.544Z,16.63
2023-02-09T10:02:49.138Z,15.35
2023-02-09T10:05:19.995Z,15.20
2023-02-09T10:07:55.141Z,14.75
2023-02-09T10:10:37.068Z,15.68
2023-02-09T10:13:14.592Z,16.52
2023-02-09T10:15:43.197Z,15.88
2023-02-09T10:18:16.607Z,15.57
2023-02-09T10:20:49.560Z,15.70
2023-02-09T10:26:04.531Z,15.82
2023-02-09T10:28:42.857Z,16.17
2023-02-09T10:31:19.422Z,16.25
2023-02-09T10:33:53.613Z,15.98
2023-02-09T10:36:27.757Z,15.98
2023-02-09T10:39:07.524Z,16.85
2023-02-09T10:41:48.173Z,17.40
2023-02-09T10:44:20.618Z,16.05
2023-02-09T10:46:49.388Z,16.77
2023-02-09T10:49:30.496Z,16.48
2023-02-09T10:52:15.026Z,17.02
2023-02-09T10:54:45.617Z,18.15
2023-02-09T10:57:24.675Z,16.88
2023-02-09T10:59:54.344Z,17.00
2023-02-09T11:02:37.029Z,17.30
2023-02-09T11:05:25.771Z,16.75
2023-02-09T11:07:58.079Z,17.58
2023-02-09T11:10:27.842Z,18.13
2023-02-09T11:12:59.489Z,19.63
2023-02-09T11:15:34.098Z,17.77
2023-02-09T11:18:07.704Z,20.10
2023-02-09T11:20:41.781Z,20.13
2023-02-09T11:23:38.050Z,19.85
2023-02-09T11:26:13.752Z,21.10
2023-02-09T11:28:52.925Z,22.08
2023-02-09T11:31:39.946Z,18.77
2023-02-09T11:34:19.940Z,20.70
2023-02-09T11:36:55.544Z,22.65
2023-02-09T11:39:30.969Z,20.73
2023-02-09T11:42:22.083Z,19.75
2023-02-09T11:44:59.959Z,19.67
2023-02-09T11:47:34.584Z,19.40
2023-02-09T11:50:11.380Z,21.17
2023-02-09T11:52:50.426Z,21.58
2023-02-09T11:55:34.667Z,21.08
2023-02-09T11:58:16.389Z,19.90
2023-02-09T12:01:01.687Z,19.27
2023-02-09T12:03:35.492Z,20.15
2023-02-09T12:06:05.961Z,20.92
2023-02-09T12:09:00.107Z,19.88
2023-02-09T12:11:48.362Z,19.13
2023-02-09T12:14:28.410Z,19.35
2023-02-09T12:17:08.379Z,19.85
2023-02-09T12:26:10.366Z,19.05
2023-02-09T12:28:42.868Z,20.63
2023-02-09T12:31:21.606Z,22.73
2023-02-09T12:34:31.567Z,21.55
2023-02-09T12:37:29.214Z,20.92
2023-02-09T12:40:22.828Z,22.73
2023-02-09T12:43:28.653Z,20.92
2023-02-09T12:46:44.922Z,20.35
2023-02-09T12:49:24.514Z,20.92
2023-02-09T12:52:15.420Z,21.15
2023-02-09T12:54:49.198Z,19.92
2023-02-09T12:57:54.286Z,20.33
2023-02-09T13:00:57.698Z,20.60
2023-02-09T13:03:27.770Z,21.25
2023-02-09T13:06:00.882Z,22.15
2023-02-09T13:11:19.674Z,20.33
2023-02-09T13:13:54.696Z,20.70
2023-02-09T13:16:56.515Z,21.45
2023-02-09T13:20:05.943Z,21.52
2023-02-09T13:22:51.510Z,21.70
2023-02-09T13:25:33.610Z,19.70
2023-02-09T13:28:14.405Z,20.63
2023-02-09T13:30:46.688Z,20.00
2023-02-09T13:33:56.978Z,20.98
2023-02-09T13:37:08.313Z,20.70
2023-02-09T13:39:39.764Z,19.90
2023-02-09T13:42:21.506Z,19.10
2023-02-09T13:44:53.048Z,20.73
2023-02-09T13:47:21.679Z,21.40
2023-02-09T13:50:03.503Z,21.02
2023-02-09T13:52:38.638Z,20.08
2023-02-09T13:55:13.604Z,20.27
2023-02-09T13:57:55.947Z,21.10
2023-02-09T14:00:31.724Z,21.87
2023-02-09T14:03:02.815Z,20.65
2023-02-09T14:05:41.844Z,22.20
2023-02-09T14:08:14.056Z,21.88
2023-02-09T14:10:44.809Z,23.53
2023-02-09T14:13:21.041Z,21.05
2023-02-09T14:16:09.089Z,20.80
2023-02-09T14:18:46.342Z,21.27
2023-02-09T14:21:23.778Z,20.77
2023-02-09T14:24:19.248Z,20.48
2023-02-09T14:26:53.948Z,21.65
2023-02-09T14:29:30.314Z,20.83
2023-02-09T14:32:06.342Z,21.50
2023-02-09T14:34:39.504Z,21.15
2023-02-09T14:37:29.833Z,20.70
2023-02-09T14:40:01.271Z,18.77
2023-02-09T14:42:30.280Z,19.27
2023-02-09T14:45:04.258Z,19.27
2023-02-09T14:47:56.056Z,18.90
2023-02-09T14:50:26.402Z,19.08
2023-02-09T14:53:06.543Z,19.23
2023-02-09T14:55:40.446Z,18.73
2023-02-09T14:58:21.900Z,19.58
2023-02-09T15:01:09.960Z,19.67
2023-02-09T15:03:38.531Z,17.98
2023-02-09T15:06:07.727Z,19.98
2023-02-09T15:08:39.791Z,18.85
2023-02-09T15:11:25.723Z,19.38
2023-02-09T15:13:58.059Z,19.85
2023-02-09T15:16:28.233Z,19.23
2023-02-09T15:18:57.125Z,19.75
2023-02-09T15:21:25.724Z,19.80
2023-02-09T15:23:54.456Z,19.95
2023-02-09T15:26:26.735Z,20.42
2023-02-09T15:28:57.868Z,21.05
2023-02-09T15:31:35.837Z,21.05
2023-02-09T15:34:05.213Z,20.20
2023-02-09T15:36:34.054Z,23.23
2023-02-09T15:39:02.536Z,21.90
2023-02-09T15:41:48.714Z,22.27
2023-02-09T15:44:36.718Z,23.20
2023-02-09T15:47:24.369Z,24.42
2023-02-09T15:49:52.864Z,22.63
2023-02-09T15:52:21.413Z,26.60
2023-02-09T15:54:52.040Z,24.40
2023-02-09T15:57:20.569Z,28.25
2023-02-09T15:59:51.696Z,24.98
2023-02-09T16:02:22.347Z,27.55
2023-02-09T16:04:51.491Z,24.27
2023-02-09T16:07:25.251Z,26.83
2023-02-09T16:09:53.708Z,24.23
2023-02-09T16:12:22.305Z,24.42
2023-02-09T16:14:52.941Z,23.70
2023-02-09T16:17:22.765Z,22.85
2023-02-09T16:19:51.258Z,23.00
2023-02-09T16:22:23.621Z,22.13
2023-02-09T16:24:52.127Z,24.75
2023-02-09T16:27:25.143Z,23.52
2023-02-09T16:32:26.810Z,21.73
2023-02-09T16:35:07.348Z,22.05
2023-02-09T16:37:44.611Z,21.75
2023-02-09T16:40:25.622Z,22.88
2023-02-09T16:42:54.250Z,22.88
2023-02-09T16:45:24.473Z,23.20
2023-02-09T16:47:59.136Z,22.27
2023-02-09T16:50:33.011Z,20.00
2023-02-09T16:53:03.403Z,20.48
2023-02-09T16:55:33.002Z,20.75
2023-02-09T16:58:02.813Z,20.88
2023-02-09T17:00:33.530Z,20.23
2023-02-09T17:03:07.568Z,22.20
2023-02-09T17:05:37.600Z,20.27
2023-02-09T17:08:16.295Z,21.58
2023-02-09T17:10:44.682Z,21.88
2023-02-09T17:13:13.344Z,22.05
2023-02-09T17:15:46.660Z,23.98
2023-02-09T17:18:20.186Z,22.70
2023-02-09T17:20:53.209Z,23.90
2023-02-09T17:25:55.129Z,21.85
2023-02-09T17:28:27.871Z,22.23
2023-02-09T17:30:59.042Z,23.80
2023-02-09T17:33:31.662Z,21.63
2023-02-09T17:38:49.343Z,24.08
2023-02-09T17:41:19.587Z,27.95
2023-02-09T17:43:48.220Z,31.83
2023-02-09T17:46:18.824Z,33.58
2023-02-09T17:48:49.229Z,36.60
2023-02-09T17:51:22.165Z,39.72
2023-02-09T17:56:19.474Z,34.75
2023-02-09T17:58:47.874Z,33.38
2023-02-09T18:01:26.569Z,33.90
2023-02-09T18:03:58.262Z,30.10
2023-02-09T18:06:33.723Z,32.55
2023-02-09T18:09:03.025Z,32.15
2023-02-09T18:11:43.249Z,35.65
2023-02-09T18:14:14.498Z,33.72
2023-02-09T18:16:43.330Z,30.65
2023-02-09T18:19:13.749Z,33.17
2023-02-09T18:21:48.784Z,33.90
2023-02-09T18:24:17.596Z,33.60
2023-02-09T18:26:46.990Z,34.08
2023-02-09T18:29:15.755Z,38.05
2023-02-09T18:31:44.190Z,35.08
2023-02-09T18:34:16.703Z,38.10
2023-02-09T18:36:48.714Z,37.25
2023-02-09T18:39:18.007Z,36.47
2023-02-09T18:41:48.621Z,36.22
2023-02-09T18:44:19.181Z,32.35
2023-02-09T18:46:48.113Z,32.05
2023-02-09T18:49:20.763Z,35.83
2023-02-09T18:51:49.448Z,33.35
2023-02-09T18:54:17.831Z,37.03
2023-02-09T18:56:46.342Z,32.47
2023-02-09T18:59:17.516Z,31.92
2023-02-09T19:01:46.542Z,30.15
2023-02-09T19:04:15.234Z,34.97
2023-02-09T19:06:44.723Z,48.35
2023-02-09T19:09:15.728Z,48.95
2023-02-09T19:11:44.082Z,42.80
2023-02-09T19:14:29.972Z,41.28
2023-02-09T19:16:58.475Z,40.13
2023-02-09T19:19:26.955Z,39.50
2023-02-09T19:21:58.046Z,42.72
2023-02-09T19:24:28.516Z,40.60
2023-02-09T19:27:00.140Z,37.60
2023-02-09T19:29:29.103Z,37.28
2023-02-09T19:31:57.951Z,36.30
2023-02-09T19:34:26.504Z,40.17
2023-02-09T19:36:55.132Z,59.30
2023-02-09T19:39:25.493Z,48.53
2023-02-09T19:41:53.846Z,40.17
2023-02-09T19:44:23.631Z,38.00
2023-02-09T19:46:52.598Z,36.28
2023-02-09T19:49:21.414Z,34.92
2023-02-09T19:51:49.713Z,31.52
2023-02-09T19:54:18.117Z,29.55
2023-02-09T19:56:47.441Z,27.60
2023-02-09T19:59:16.972Z,27.73
2023-02-09T20:01:45.710Z,28.10
2023-02-09T20:04:14.558Z,28.13
2023-02-09T20:06:42.892Z,30.45
2023-02-09T20:09:12.330Z,28.67
2023-02-09T20:11:40.644Z,29.00
2023-02-09T20:14:10.614Z,27.05
2023-02-09T20:16:39.107Z,28.95
2023-02-09T20:19:07.694Z,27.50
2023-02-09T20:21:36.371Z,26.48
2023-02-09T20:24:09.556Z,24.92
2023-02-09T20:26:38.040Z,25.90
2023-02-09T20:29:07.546Z,26.65
2023-02-09T20:31:39.414Z,25.48
2023-02-09T20:34:11.546Z,22.77
2023-02-09T20:36:41.516Z,26.75
2023-02-09T20:39:16.044Z,23.83
2023-02-09T20:42:02.875Z,25.83
2023-02-09T20:44:48.852Z,23.38
2023-02-09T20:47:19.112Z,25.30
2023-02-09T20:49:51.001Z,24.90
2023-02-09T20:52:21.088Z,23.50
2023-02-09T20:54:49.572Z,25.20
2023-02-09T20:57:18.281Z,28.70
2023-02-09T20:59:46.968Z,27.05
2023-02-09T21:02:25.463Z,27.58
2023-02-09T21:05:05.068Z,27.00
2023-02-09T21:07:45.440Z,25.33
2023-02-09T21:10:36.345Z,26.73
2023-02-09T21:13:08.249Z,26.95
2023-02-09T21:15:48.054Z,31.63
2023-02-09T21:18:19.163Z,27.75
2023-02-09T21:20:47.770Z,28.02
2023-02-09T21:23:17.258Z,29.55
2023-02-09T21:25:46.343Z,31.67
2023-02-09T21:28:15.224Z,34.47
2023-02-09T21:30:45.971Z,32.97
2023-02-09T21:33:14.779Z,30.73
2023-02-09T21:35:44.750Z,31.67
2023-02-09T21:38:13.089Z,33.28
2023-02-09T21:40:41.804Z,34.55
2023-02-09T21:43:10.501Z,30.48
2023-02-09T21:45:40.455Z,31.13
2023-02-09T21:48:08.950Z,30.05
2023-02-09T21:50:37.540Z,31.10
2023-02-09T21:53:17.021Z,29.83
2023-02-09T21:56:15.014Z,31.13
2023-02-09T21:58:43.975Z,28.23
2023-02-09T22:01:27.154Z,28.92
2023-02-09T22:04:05.361Z,28.75
2023-02-09T22:06:39.402Z,30.17
2023-02-09T22:09:11.159Z,29.88
2023-02-09T22:11:42.576Z,28.73
2023-02-09T22:14:11.863Z,25.88
2023-02-09T22:16:43.144Z,26.90
2023-02-09T22:19:14.422Z,27.02
2023-02-09T22:21:45.998Z,28.00
2023-02-09T22:24:26.388Z,27.35
2023-02-09T22:26:55.065Z,25.17
2023-02-09T22:29:25.739Z,26.42
2023-02-09T22:31:56.432Z,25.85
2023-02-09T22:34:28.577Z,26.80
2023-02-09T22:36:57.066Z,24.60
2023-02-09T22:39:26.724Z,24.73
2023-02-09T22:41:58.160Z,24.38
2023-02-09T22:44:27.977Z,23.20
2023-02-09T22:46:58.694Z,24.70
2023-02-09T22:49:28.457Z,25.10
2023-02-09T22:51:56.981Z,25.27
2023-02-09T22:54:27.219Z,27.17
2023-02-09T22:56:55.571Z,27.27
2023-02-09T22:59:24.212Z,26.92
2023-02-09T23:01:55.221Z,26.27
2023-02-09T23:04:23.768Z,27.13
2023-02-09T23:06:54.973Z,29.83
2023-02-09T23:09:23.404Z,30.58
2023-02-09T23:11:53.194Z,28.42
2023-02-09T23:14:21.878Z,28.10
2023-02-09T23:16:53.740Z,29.83
2023-02-09T23:19:23.611Z,28.20
2023-02-09T23:21:53.399Z,28.50
2023-02-09T23:24:24.466Z,28.15
2023-02-09T23:26:54.324Z,24.95
2023-02-09T23:29:26.127Z,26.70
2023-02-09T23:31:54.549Z,27.95
2023-02-09T23:34:26.710Z,27.20
2023-02-09T23:36:55.039Z,25.67
2023-02-09T23:39:25.667Z,27.33
2023-02-09T23:41:55.167Z,27.10
2023-02-09T23:44:23.443Z,27.40
2023-02-09T23:46:51.654Z,27.95
2023-02-09T23:49:19.892Z,29.42
2023-02-09T23:51:48.239Z,25.42
2023-02-09T23:54:16.531Z,27.38
2023-02-09T23:56:46.666Z,27.40
2023-02-09T23:59:16.627Z,27.83
